createdAt,value
2022-08-20T00:00:40.773Z,11.02
2022-08-20T00:03:16.096Z,10.85
2022-08-20T00:05:49.371Z,10.07
2022-08-20T00:08:17.574Z,11.00
2022-08-20T00:10:46.195Z,9.93
2022-08-20T00:13:19.717Z,10.32
2022-08-20T00:15:46.704Z,11.77
2022-08-20T00:18:14.534Z,10.45
2022-08-20T00:20:43.994Z,12.02
2022-08-20T00:23:11.622Z,11.05
2022-08-20T00:25:39.430Z,10.13
2022-08-20T00:28:07.007Z,10.07
2022-08-20T00:30:35.284Z,10.18
2022-08-20T00:33:08.837Z,10.10
2022-08-20T00:35:40.220Z,11.88
2022-08-20T00:38:06.734Z,11.00
2022-08-20T00:40:44.289Z,10.57
2022-08-20T00:43:39.645Z,10.45
2022-08-20T00:46:10.053Z,11.50
2022-08-20T00:48:38.984Z,10.93
2022-08-20T00:51:11.306Z,12.82
2022-08-20T00:53:39.414Z,13.27
2022-08-20T00:56:08.221Z,10.85
2022-08-20T00:58:37.603Z,10.40
2022-08-20T01:01:06.529Z,11.20
2022-08-20T01:03:34.005Z,11.23
2022-08-20T01:06:00.641Z,10.18
2022-08-20T01:08:27.531Z,12.20
2022-08-20T01:11:28.114Z,11.88
2022-08-20T01:14:24.510Z,11.48
2022-08-20T01:16:58.068Z,12.10
2022-08-20T01:19:35.938Z,10.85
2022-08-20T01:22:24.567Z,11.23
2022-08-20T01:24:58.633Z,11.20
2022-08-20T01:27:25.354Z,10.23
2022-08-20T01:29:52.057Z,12.00
2022-08-20T01:32:18.639Z,14.15
2022-08-20T01:34:45.079Z,11.00
2022-08-20T01:37:11.513Z,11.57
2022-08-20T01:39:38.012Z,13.70
2022-08-20T01:42:27.418Z,14.10
2022-08-20T01:44:53.996Z,11.80
2022-08-20T01:47:31.871Z,11.07
2022-08-20T01:50:17.772Z,12.10
2022-08-20T01:53:11.535Z,12.10
2022-08-20T01:55:38.933Z,12.77
2022-08-20T01:58:05.525Z,13.32
2022-08-20T02:00:32.585Z,13.75
2022-08-20T02:02:59.099Z,11.38
2022-08-20T02:05:30.541Z,13.23
2022-08-20T02:07:57.641Z,12.80
2022-08-20T02:10:24.932Z,13.13
2022-08-20T02:12:53.090Z,12.13
2022-08-20T02:15:34.464Z,12.27
2022-08-20T02:18:05.101Z,12.48
2022-08-20T02:20:35.922Z,12.97
2022-08-20T02:23:05.301Z,11.93
2022-08-20T02:25:35.394Z,11.65
2022-08-20T02:28:05.385Z,12.10
2022-08-20T02:30:35.902Z,12.07
2022-08-20T02:33:06.454Z,12.50
2022-08-20T02:35:33.901Z,13.80
2022-08-20T02:38:01.028Z,13.40
2022-08-20T02:40:31.100Z,12.93
2022-08-20T02:42:59.755Z,13.80
2022-08-20T02:45:27.160Z,12.32
2022-08-20T02:47:55.621Z,13.00
2022-08-20T02:50:24.063Z,12.15
2022-08-20T02:52:51.876Z,11.35
2022-08-20T02:55:27.305Z,11.68
2022-08-20T02:57:59.880Z,11.10
2022-08-20T03:00:37.906Z,12.63
2022-08-20T03:03:06.684Z,11.63
2022-08-20T03:05:34.622Z,13.30
2022-08-20T03:08:01.235Z,11.75
2022-08-20T03:10:34.496Z,12.55
2022-08-20T03:13:02.598Z,12.90
2022-08-20T03:15:30.901Z,13.90
2022-08-20T03:17:58.237Z,10.88
2022-08-20T03:20:26.059Z,11.23
2022-08-20T03:22:53.227Z,11.27
2022-08-20T03:25:19.783Z,11.77
2022-08-20T03:27:47.180Z,11.38
2022-08-20T03:30:21.999Z,12.80
2022-08-20T03:32:48.470Z,10.55
2022-08-20T03:35:16.935Z,12.65
2022-08-20T03:37:45.771Z,10.80
2022-08-20T03:40:22.559Z,10.63
2022-08-20T03:45:19.913Z,10.80
2022-08-20T03:47:48.552Z,12.48
2022-08-20T03:50:22.945Z,9.55
2022-08-20T03:52:51.414Z,10.25
2022-08-20T03:55:18.184Z,12.57
2022-08-20T03:57:51.900Z,10.20
2022-08-20T04:00:47.603Z,11.55
2022-08-20T04:03:15.279Z,9.93
2022-08-20T04:05:42.750Z,10.80
2022-08-20T04:08:15.965Z,13.68
2022-08-20T04:10:43.059Z,11.63
2022-08-20T04:13:09.495Z,10.63
2022-08-20T04:15:37.165Z,10.07
2022-08-20T04:18:07.547Z,10.27
2022-08-20T04:20:36.376Z,9.75
2022-08-20T04:23:04.309Z,9.90
2022-08-20T04:25:36.056Z,10.60
2022-08-20T04:28:06.652Z,10.05
2022-08-20T04:30:34.226Z,10.57
2022-08-20T04:33:01.033Z,10.48
2022-08-20T04:35:28.517Z,9.85
2022-08-20T04:38:22.124Z,10.30
2022-08-20T04:40:55.941Z,11.52
2022-08-20T04:43:44.411Z,9.25
2022-08-20T04:46:10.910Z,12.90
2022-08-20T04:48:41.000Z,10.05
2022-08-20T04:51:10.282Z,9.52
2022-08-20T04:53:36.872Z,9.20
2022-08-20T04:56:03.649Z,11.63
2022-08-20T04:58:33.799Z,8.93
2022-08-20T05:01:04.012Z,10.32
2022-08-20T05:03:31.729Z,10.88
2022-08-20T05:05:59.085Z,11.38
2022-08-20T05:08:26.472Z,9.70
2022-08-20T05:10:58.137Z,12.00
2022-08-20T05:13:41.290Z,9.43
2022-08-20T05:16:08.088Z,9.30
2022-08-20T05:18:35.164Z,8.80
2022-08-20T05:21:08.502Z,8.88
2022-08-20T05:23:40.565Z,10.27
2022-08-20T05:26:09.034Z,9.80
2022-08-20T05:28:54.088Z,10.85
2022-08-20T05:31:25.153Z,10.73
2022-08-20T05:34:12.249Z,9.88
2022-08-20T05:36:41.026Z,10.25
2022-08-20T05:39:08.926Z,10.13
2022-08-20T05:41:36.245Z,10.18
2022-08-20T05:44:02.939Z,9.23
2022-08-20T05:46:31.370Z,9.90
2022-08-20T05:48:59.800Z,9.75
2022-08-20T05:51:28.538Z,13.43
2022-08-20T05:53:59.056Z,11.40
2022-08-20T05:56:27.261Z,11.60
2022-08-20T05:58:54.129Z,10.98
2022-08-20T06:01:21.128Z,9.80
2022-08-20T06:04:06.213Z,10.43
2022-08-20T06:06:44.172Z,10.45
2022-08-20T06:09:14.323Z,11.35
2022-08-20T06:11:40.896Z,12.57
2022-08-20T06:14:07.504Z,11.68
2022-08-20T06:16:34.096Z,10.65
2022-08-20T06:19:03.769Z,9.63
2022-08-20T06:21:30.285Z,12.73
2022-08-20T06:23:58.869Z,12.07
2022-08-20T06:26:29.768Z,11.10
2022-08-20T06:28:58.455Z,13.63
2022-08-20T06:31:24.944Z,12.85
2022-08-20T06:33:51.555Z,11.27
2022-08-20T06:36:18.806Z,13.60
2022-08-20T06:38:46.187Z,11.15
2022-08-20T06:41:12.917Z,10.90
2022-08-20T06:43:39.434Z,9.80
2022-08-20T06:46:06.893Z,10.38
2022-08-20T06:48:37.043Z,10.00
2022-08-20T06:51:06.407Z,11.43
2022-08-20T06:53:32.859Z,11.52
2022-08-20T06:55:59.683Z,9.35
2022-08-20T06:58:38.394Z,7.78
2022-08-20T07:01:12.199Z,8.40
2022-08-20T07:03:54.112Z,7.40
2022-08-20T07:06:22.199Z,8.18
2022-08-20T07:08:48.666Z,8.95
2022-08-20T07:11:15.370Z,8.63
2022-08-20T07:13:41.971Z,8.73
2022-08-20T07:16:08.985Z,8.38
2022-08-20T07:18:36.044Z,7.20
2022-08-20T07:21:02.510Z,7.65
2022-08-20T07:23:31.566Z,9.20
2022-08-20T07:25:58.555Z,9.48
2022-08-20T07:28:29.017Z,7.72
2022-08-20T07:31:15.812Z,8.60
2022-08-20T07:33:44.579Z,10.43
2022-08-20T07:36:12.797Z,8.27
2022-08-20T07:38:39.386Z,8.65
2022-08-20T07:41:09.907Z,7.75
2022-08-20T07:43:36.540Z,8.98
2022-08-20T07:46:09.189Z,9.88
2022-08-20T07:48:39.759Z,12.07
2022-08-20T07:51:08.101Z,8.48
2022-08-20T07:53:37.057Z,7.78
2022-08-20T07:56:10.289Z,9.60
2022-08-20T07:58:41.520Z,10.85
2022-08-20T08:01:08.335Z,8.98
2022-08-20T08:03:39.553Z,9.77
2022-08-20T08:06:28.313Z,8.75
2022-08-20T08:09:13.175Z,8.35
2022-08-20T08:11:47.485Z,9.43
2022-08-20T08:14:16.222Z,9.25
2022-08-20T08:16:45.371Z,7.68
2022-08-20T08:19:16.954Z,9.38
2022-08-20T08:21:44.372Z,10.52
2022-08-20T08:24:12.736Z,10.43
2022-08-20T08:26:40.963Z,11.13
2022-08-20T08:29:07.564Z,10.27
2022-08-20T08:31:34.928Z,9.35
2022-08-20T08:34:01.381Z,13.52
2022-08-20T08:36:27.934Z,9.38
2022-08-20T08:38:55.940Z,12.63
2022-08-20T08:41:35.455Z,8.63
2022-08-20T08:44:21.695Z,10.57
2022-08-20T08:46:49.485Z,8.93
2022-08-20T08:49:24.524Z,11.52
2022-08-20T08:52:07.184Z,10.88
2022-08-20T08:54:35.135Z,7.70
2022-08-20T08:57:02.583Z,8.90
2022-08-20T08:59:48.577Z,8.45
2022-08-20T09:02:22.250Z,8.43
2022-08-20T09:04:51.511Z,8.60
2022-08-20T09:07:18.183Z,11.23
2022-08-20T09:09:46.733Z,7.65
2022-08-20T09:12:19.297Z,9.80
2022-08-20T09:14:50.212Z,7.68
2022-08-20T09:17:19.441Z,8.15
2022-08-20T09:19:46.340Z,11.10
2022-08-20T09:22:18.700Z,9.15
2022-08-20T09:24:46.285Z,7.65
2022-08-20T09:27:12.766Z,6.95
2022-08-20T09:29:39.949Z,8.90
2022-08-20T09:32:18.860Z,8.80
2022-08-20T09:34:56.944Z,8.63
2022-08-20T09:37:25.876Z,7.93
2022-08-20T09:39:52.639Z,7.57
2022-08-20T09:42:28.393Z,8.35
2022-08-20T09:44:55.836Z,8.98
2022-08-20T09:47:22.400Z,9.55
2022-08-20T09:49:49.511Z,10.82
2022-08-20T09:52:40.681Z,9.80
2022-08-20T09:55:33.542Z,6.93
2022-08-20T09:58:08.136Z,8.02
2022-08-20T10:00:34.779Z,10.57
2022-08-20T10:03:03.183Z,7.75
2022-08-20T10:05:30.202Z,8.25
2022-08-20T10:07:56.762Z,10.23
2022-08-20T10:10:23.307Z,7.13
2022-08-20T10:12:54.634Z,6.03
2022-08-20T10:15:21.624Z,6.93
2022-08-20T10:17:48.109Z,7.82
2022-08-20T10:20:15.579Z,7.35
2022-08-20T10:22:42.062Z,7.47
2022-08-20T10:25:08.726Z,8.05
2022-08-20T10:27:35.189Z,8.88
2022-08-20T10:30:05.238Z,5.82
2022-08-20T10:32:31.748Z,6.85
2022-08-20T10:34:58.208Z,7.70
2022-08-20T10:37:25.811Z,6.82
2022-08-20T10:39:53.277Z,7.45
2022-08-20T10:42:19.873Z,7.22
2022-08-20T10:44:46.850Z,7.10
2022-08-20T10:47:20.821Z,7.68
2022-08-20T10:49:49.339Z,8.52
2022-08-20T10:52:16.195Z,9.98
2022-08-20T10:54:43.058Z,6.80
2022-08-20T10:57:14.796Z,5.05
2022-08-20T10:59:43.278Z,5.13
2022-08-20T11:02:10.438Z,5.50
2022-08-20T11:04:37.040Z,5.88
2022-08-20T11:07:55.512Z,6.78
2022-08-20T11:10:14.182Z,6.82
2022-08-20T11:12:41.005Z,5.78
2022-08-20T11:15:10.576Z,7.93
2022-08-20T11:17:41.130Z,5.18
2022-08-20T11:20:09.040Z,6.18
2022-08-20T11:22:35.539Z,8.18
2022-08-20T11:25:02.883Z,6.72
2022-08-20T11:27:33.746Z,5.30
2022-08-20T11:30:00.919Z,9.10
2022-08-20T11:32:27.632Z,6.07
2022-08-20T11:34:54.138Z,4.55
2022-08-20T11:37:24.125Z,9.70
2022-08-20T11:39:51.013Z,6.03
2022-08-20T11:42:17.912Z,7.32
2022-08-20T11:44:44.593Z,5.80
2022-08-20T11:47:22.205Z,5.65
2022-08-20T11:49:57.015Z,8.20
2022-08-20T11:52:23.501Z,5.97
2022-08-20T11:54:54.724Z,6.22
2022-08-20T11:57:27.760Z,6.07
2022-08-20T11:59:56.178Z,6.65
2022-08-20T12:02:22.986Z,8.55
2022-08-20T12:04:49.793Z,7.50
2022-08-20T12:07:19.117Z,4.80
2022-08-20T12:09:50.856Z,8.60
2022-08-20T12:12:20.495Z,6.00
2022-08-20T12:14:47.219Z,7.47
2022-08-20T12:17:33.978Z,5.53
2022-08-20T12:20:04.794Z,9.30
2022-08-20T12:22:31.341Z,7.78
2022-08-20T12:24:57.853Z,7.32
2022-08-20T12:27:27.666Z,6.00
2022-08-20T12:29:56.154Z,4.63
2022-08-20T12:32:24.822Z,5.95
2022-08-20T12:34:51.786Z,7.15
2022-08-20T12:37:21.492Z,8.20
2022-08-20T12:39:52.392Z,9.57
2022-08-20T12:42:19.733Z,7.05
2022-08-20T12:44:46.370Z,7.70
2022-08-20T12:47:35.686Z,8.88
2022-08-20T12:50:06.709Z,7.10
2022-08-20T12:52:33.879Z,5.85
2022-08-20T12:55:00.984Z,8.10
2022-08-20T12:57:33.522Z,7.13
2022-08-20T13:00:12.609Z,7.63
2022-08-20T13:02:41.094Z,6.07
2022-08-20T13:05:12.224Z,7.25
2022-08-20T13:07:39.517Z,9.88
2022-08-20T13:10:09.043Z,14.00
2022-08-20T13:12:35.734Z,8.95
2022-08-20T13:15:02.610Z,10.27
2022-08-20T13:17:38.986Z,10.07
2022-08-20T13:20:16.807Z,10.43
2022-08-20T13:22:43.864Z,6.22
2022-08-20T13:25:12.262Z,7.20
2022-08-20T13:27:41.717Z,9.68
2022-08-20T13:30:10.552Z,5.63
2022-08-20T13:32:37.293Z,11.02
2022-08-20T13:35:04.013Z,9.70
2022-08-20T13:37:30.637Z,6.93
2022-08-20T13:39:58.409Z,7.18
2022-08-20T13:42:26.102Z,8.00
2022-08-20T13:44:53.947Z,6.90
2022-08-20T13:47:28.738Z,9.93
2022-08-20T13:50:17.529Z,10.25
2022-08-20T13:52:44.729Z,6.88
2022-08-20T13:55:16.162Z,8.65
2022-08-20T13:57:43.884Z,7.00
2022-08-20T14:00:14.631Z,9.93
2022-08-20T14:02:42.166Z,8.32
2022-08-20T14:05:09.850Z,6.65
2022-08-20T14:07:37.923Z,7.28
2022-08-20T14:10:18.895Z,7.47
2022-08-20T14:12:46.358Z,11.00
2022-08-20T14:15:12.938Z,8.73
2022-08-20T14:17:42.771Z,6.95
2022-08-20T14:20:15.650Z,8.00
2022-08-20T14:22:44.330Z,8.27
2022-08-20T14:25:14.946Z,9.90
2022-08-20T14:27:41.970Z,9.57
2022-08-20T14:30:13.144Z,7.20
2022-08-20T14:32:40.458Z,11.20
2022-08-20T14:35:08.307Z,6.38
2022-08-20T14:37:40.113Z,7.47
2022-08-20T14:40:11.090Z,6.50
2022-08-20T14:42:38.093Z,7.00
2022-08-20T14:45:07.051Z,7.60
2022-08-20T14:47:36.173Z,6.47
2022-08-20T14:50:07.037Z,9.02
2022-08-20T14:52:36.487Z,5.75
2022-08-20T14:55:05.363Z,5.88
2022-08-20T14:57:32.562Z,8.25
2022-08-20T14:59:59.246Z,8.25
2022-08-20T15:02:25.885Z,9.23
2022-08-20T15:04:54.469Z,6.97
2022-08-20T15:07:23.776Z,6.97
2022-08-20T15:09:50.521Z,10.50
2022-08-20T15:12:17.018Z,5.93
2022-08-20T15:14:43.609Z,5.80
2022-08-20T15:17:26.440Z,7.53
2022-08-20T15:19:53.945Z,6.50
2022-08-20T15:22:22.085Z,8.50
2022-08-20T15:24:49.296Z,7.57
2022-08-20T15:27:23.095Z,6.18
2022-08-20T15:29:51.446Z,7.50
2022-08-20T15:32:18.787Z,8.77
2022-08-20T15:34:45.598Z,6.82
2022-08-20T15:37:13.772Z,6.60
2022-08-20T15:39:42.033Z,7.22
2022-08-20T15:42:09.856Z,8.70
2022-08-20T15:44:36.595Z,7.28
2022-08-20T15:47:21.896Z,8.60
2022-08-20T15:49:50.993Z,7.10
2022-08-20T15:52:18.061Z,7.45
2022-08-20T15:54:45.698Z,10.57
2022-08-20T15:57:40.670Z,7.68
2022-08-20T16:00:14.386Z,7.03
2022-08-20T16:03:00.032Z,8.88
2022-08-20T16:05:32.639Z,6.57
2022-08-20T16:08:37.526Z,9.60
2022-08-20T16:11:29.538Z,6.72
2022-08-20T16:14:02.814Z,8.70
2022-08-20T16:16:35.580Z,7.28
2022-08-20T16:19:02.552Z,9.68
2022-08-20T16:21:37.454Z,9.65
2022-08-20T16:24:06.544Z,10.65
2022-08-20T16:26:59.468Z,8.57
2022-08-20T16:29:45.578Z,8.55
2022-08-20T16:32:30.679Z,8.75
2022-08-20T16:35:29.903Z,9.75
2022-08-20T16:38:35.521Z,8.32
2022-08-20T16:43:40.520Z,7.55
2022-08-20T16:46:17.354Z,6.72
2022-08-20T16:48:52.590Z,6.03
2022-08-20T16:51:29.185Z,5.93
2022-08-20T16:53:55.776Z,7.25
2022-08-20T16:56:38.313Z,8.80
2022-08-20T16:59:11.360Z,9.52
2022-08-20T17:01:38.296Z,5.60
2022-08-20T17:04:06.616Z,5.72
2022-08-20T17:06:37.668Z,6.70
2022-08-20T17:09:10.962Z,5.60
2022-08-20T17:11:37.925Z,7.15
2022-08-20T17:14:09.533Z,8.60
2022-08-20T17:16:43.600Z,5.10
2022-08-20T17:21:43.561Z,8.07
2022-08-20T17:24:20.898Z,6.80
2022-08-20T17:26:57.778Z,6.15
2022-08-20T17:29:28.276Z,11.93
2022-08-20T17:31:58.175Z,7.07
2022-08-20T17:34:28.356Z,6.15
2022-08-20T17:37:02.993Z,7.03
2022-08-20T17:39:31.489Z,4.80
2022-08-20T17:42:17.513Z,9.77
2022-08-20T17:44:51.273Z,9.50
2022-08-20T17:47:19.993Z,9.30
2022-08-20T17:50:02.337Z,8.18
2022-08-20T17:52:46.457Z,6.97
2022-08-20T17:55:13.590Z,5.57
2022-08-20T17:57:43.867Z,7.43
2022-08-20T18:00:15.329Z,6.82
2022-08-20T18:02:43.225Z,7.13
2022-08-20T18:05:17.905Z,4.95
2022-08-20T18:08:19.463Z,5.28
2022-08-20T18:11:03.716Z,6.57
2022-08-20T18:13:48.359Z,8.98
2022-08-20T18:16:27.994Z,4.55
2022-08-20T18:18:59.477Z,6.50
2022-08-20T18:21:43.916Z,6.13
2022-08-20T18:26:52.597Z,6.63
2022-08-20T18:29:29.313Z,7.93
2022-08-20T18:32:05.747Z,7.88
2022-08-20T18:34:32.149Z,5.78
2022-08-20T18:37:21.039Z,6.03
2022-08-20T18:39:50.029Z,7.38
2022-08-20T18:42:35.148Z,6.88
2022-08-20T18:45:01.919Z,6.28
2022-08-20T18:47:34.614Z,7.18
2022-08-20T18:50:05.267Z,6.30
2022-08-20T18:52:37.699Z,8.38
2022-08-20T18:55:15.839Z,9.25
2022-08-20T18:58:02.695Z,6.35
2022-08-20T19:00:44.844Z,6.78
2022-08-20T19:03:31.212Z,6.57
2022-08-20T19:06:25.855Z,5.32
2022-08-20T19:09:20.219Z,8.45
2022-08-20T19:12:22.223Z,6.30
2022-08-20T19:15:01.360Z,6.25
2022-08-20T19:17:53.992Z,6.35
2022-08-20T19:20:24.341Z,7.50
2022-08-20T19:22:53.203Z,6.72
2022-08-20T19:25:32.720Z,5.32
2022-08-20T19:28:04.384Z,3.45
2022-08-20T19:30:38.324Z,4.82
2022-08-20T19:33:06.149Z,7.63
2022-08-20T19:35:34.021Z,6.93
2022-08-20T19:38:02.197Z,6.55
2022-08-20T19:40:33.040Z,5.05
2022-08-20T19:43:11.930Z,5.07
2022-08-20T19:45:50.452Z,5.75
2022-08-20T19:48:37.299Z,6.55
2022-08-20T19:51:32.412Z,4.30
2022-08-20T19:53:58.909Z,6.28
2022-08-20T19:56:27.321Z,4.00
2022-08-20T19:59:08.887Z,6.47
2022-08-20T20:01:35.925Z,7.70
2022-08-20T20:04:17.099Z,4.82
2022-08-20T20:06:46.242Z,4.65
2022-08-20T20:09:25.003Z,5.32
2022-08-20T20:11:57.913Z,6.68
2022-08-20T20:14:29.106Z,7.85
2022-08-20T20:16:56.081Z,5.85
2022-08-20T20:19:26.706Z,5.93
2022-08-20T20:22:19.150Z,6.43
2022-08-20T20:24:57.621Z,7.72
2022-08-20T20:27:26.583Z,7.28
2022-08-20T20:30:08.273Z,7.63
2022-08-20T20:32:38.936Z,8.80
2022-08-20T20:35:06.243Z,9.68
2022-08-20T20:37:50.710Z,7.72
2022-08-20T20:40:28.689Z,9.65
2022-08-20T20:43:06.409Z,9.38
2022-08-20T20:45:45.600Z,8.68
2022-08-20T20:48:23.776Z,7.43
2022-08-20T20:50:51.994Z,7.80
2022-08-20T20:53:47.234Z,8.63
2022-08-20T20:56:31.257Z,12.77
2022-08-20T20:59:01.308Z,12.52
2022-08-20T21:01:48.698Z,12.07
2022-08-20T21:04:21.759Z,12.85
2022-08-20T21:06:50.153Z,10.23
2022-08-20T21:09:17.163Z,10.00
2022-08-20T21:11:43.745Z,9.55
2022-08-20T21:14:10.245Z,10.00
2022-08-20T21:16:36.717Z,7.45
2022-08-20T21:19:07.525Z,7.15
2022-08-20T21:21:34.343Z,7.03
2022-08-20T21:24:00.768Z,7.65
2022-08-20T21:26:28.523Z,4.25
2022-08-20T21:28:55.266Z,6.63
2022-08-20T21:31:25.995Z,6.25
2022-08-20T21:33:52.522Z,8.85
2022-08-20T21:36:18.986Z,6.30
2022-08-20T21:38:45.430Z,5.53
2022-08-20T21:41:11.869Z,6.97
2022-08-20T21:43:38.317Z,6.28
2022-08-20T21:46:05.761Z,7.38
2022-08-20T21:48:32.435Z,8.25
2022-08-20T21:50:59.034Z,6.28
2022-08-20T21:53:25.545Z,6.30
2022-08-20T21:55:52.103Z,5.43
2022-08-20T21:58:20.200Z,7.50
2022-08-20T22:00:53.744Z,5.40
2022-08-20T22:03:23.450Z,7.85
2022-08-20T22:05:51.328Z,5.05
2022-08-20T22:08:18.553Z,5.40
2022-08-20T22:10:45.127Z,6.10
2022-08-20T22:13:12.295Z,10.27
2022-08-20T22:15:39.361Z,5.30
2022-08-20T22:18:06.155Z,6.03
2022-08-20T22:20:33.006Z,5.18
2022-08-20T22:23:02.455Z,5.47
2022-08-20T22:25:29.025Z,8.77
2022-08-20T22:27:55.859Z,7.75
2022-08-20T22:30:22.454Z,6.60
2022-08-20T22:32:51.898Z,7.00
2022-08-20T22:35:19.415Z,5.32
2022-08-20T22:37:46.153Z,6.88
2022-08-20T22:40:12.692Z,5.03
2022-08-20T22:42:39.196Z,8.70
2022-08-20T22:45:14.607Z,9.63
2022-08-20T22:47:42.994Z,7.97
2022-08-20T22:50:11.504Z,5.13
2022-08-20T22:52:39.345Z,8.23
2022-08-20T22:55:06.879Z,5.90
2022-08-20T22:57:35.989Z,5.38
2022-08-20T23:00:06.620Z,7.20
2022-08-20T23:02:33.139Z,6.25
2022-08-20T23:04:59.580Z,7.45
2022-08-20T23:07:26.173Z,9.45
2022-08-20T23:09:52.589Z,6.85
2022-08-20T23:12:19.046Z,7.85
2022-08-20T23:14:45.551Z,7.05
2022-08-20T23:17:17.370Z,7.55
2022-08-20T23:19:45.440Z,10.13
2022-08-20T23:22:12.440Z,7.18
2022-08-20T23:24:39.479Z,7.57
2022-08-20T23:27:07.633Z,6.72
2022-08-20T23:29:34.202Z,5.70
2022-08-20T23:32:00.754Z,7.00
2022-08-20T23:34:27.306Z,5.90
2022-08-20T23:36:56.314Z,6.68
2022-08-20T23:39:23.951Z,9.75
2022-08-20T23:41:50.662Z,6.68
2022-08-20T23:44:25.717Z,5.72
2022-08-20T23:47:00.545Z,6.15
2022-08-20T23:49:28.362Z,6.63
2022-08-20T23:51:55.471Z,6.18
2022-08-20T23:54:22.121Z,5.90
2022-08-20T23:56:49.552Z,6.78
2022-08-20T23:59:16.308Z,7.55
